Time;durP1;ratioP1;P1;durP2;ratioP2;P2;SDS_P1;SDS_P2;PMS_P1;PMS_P2;Temp;Humidity;BMP_temperature;BMP_pressure;BME280_temperature;BME280_humidity;BME280_pressure;Samples;Min_cycle;Max_cycle;Signal;HPM_P1;HPM_P2
2022/04/09 00:01:33;;;;;;;1.50;1.20;;;8.20;54.80;;;;;;5060423;28;20962;-89
2022/04/09 00:04:00;;;;;;;2.00;1.40;;;8.20;54.80;;;;;;5086590;28;21213;-88
2022/04/09 00:06:28;;;;;;;1.60;1.50;;;8.20;54.70;;;;;;5071620;28;20567;-90
2022/04/09 00:08:55;;;;;;;2.20;1.67;;;8.20;54.70;;;;;;5083481;28;20451;-88
2022/04/09 00:11:22;;;;;;;2.27;2.07;;;8.20;54.40;;;;;;5070701;28;20529;-88
2022/04/09 00:13:49;;;;;;;2.70;2.03;;;8.30;54.50;;;;;;5083596;28;20448;-85
2022/04/09 00:16:16;;;;;;;1.97;1.70;;;8.20;54.40;;;;;;5050786;28;20971;-88
2022/04/09 00:18:44;;;;;;;3.00;2.33;;;8.10;54.70;;;;;;5083031;28;20467;-89
2022/04/09 00:21:11;;;;;;;1.93;1.83;;;8.10;55.10;;;;;;5084153;28;20474;-89
2022/04/09 00:23:41;;;;;;;2.47;1.63;;;8.10;55.20;;;;;;5091682;28;21236;-88
2022/04/09 00:26:15;;;;;;;2.03;1.83;;;8.10;55.30;;;;;;5083957;28;20435;-89
2022/04/09 00:28:48;;;;;;;2.17;1.80;;;8.20;55.30;;;;;;5077528;28;20448;-88
2022/04/09 00:31:16;;;;;;;1.80;1.70;;;8.20;55.20;;;;;;5072926;28;20443;-87
2022/04/09 00:33:43;;;;;;;1.90;1.80;;;8.20;55.10;;;;;;5060708;28;20451;-87
2022/04/09 00:36:09;;;;;;;2.13;1.93;;;8.20;54.80;;;;;;5101716;28;20463;-87
2022/04/09 00:38:36;;;;;;;2.43;1.70;;;8.00;55.10;;;;;;5067383;28;20852;-85
2022/04/09 00:41:05;;;;;;;2.20;2.00;;;8.00;55.40;;;;;;5093038;28;20516;-85
2022/04/09 00:43:31;;;;;;;3.40;2.30;;;8.00;55.30;;;;;;5049979;28;20475;-86
2022/04/09 00:45:58;;;;;;;3.40;2.03;;;8.10;55.20;;;;;;5073102;28;20468;-85
2022/04/09 00:48:26;;;;;;;4.73;2.57;;;7.80;56.00;;;;;;5052148;28;20501;-85
2022/04/09 00:50:54;;;;;;;1.90;1.50;;;7.80;55.90;;;;;;5082368;28;20999;-86
2022/04/09 00:53:24;;;;;;;2.60;1.90;;;7.90;55.60;;;;;;5073616;28;20881;-85
2022/04/09 00:58:40;;;;;;;2.47;1.70;;;7.60;56.00;;;;;;5091978;28;20470;-87
2022/04/09 01:01:08;;;;;;;3.47;1.80;;;7.70;56.40;;;;;;5070920;28;20450;-86
2022/04/09 01:03:35;;;;;;;2.97;2.40;;;7.70;56.40;;;;;;5088740;28;20478;-88
2022/04/09 01:06:02;;;;;;;4.03;2.83;;;7.90;56.20;;;;;;5088829;28;20457;-87
2022/04/09 01:08:29;;;;;;;7.77;4.90;;;7.90;56.00;;;;;;5088998;28;20800;-88
2022/04/09 01:10:56;;;;;;;5.90;3.50;;;7.80;56.00;;;;;;5058564;28;20859;-88
2022/04/09 01:13:25;;;;;;;27.30;9.67;;;7.70;56.30;;;;;;5061966;28;20528;-88
2022/04/09 01:15:53;;;;;;;9.87;4.97;;;7.50;56.40;;;;;;5092489;28;20863;-86
2022/04/09 01:18:21;;;;;;;16.93;8.30;;;7.40;56.90;;;;;;5056811;28;20451;-89
2022/04/09 01:20:58;;;;;;;11.30;4.80;;;7.30;57.30;;;;;;5062687;28;20534;-89
2022/04/09 01:23:27;;;;;;;13.97;6.67;;;7.20;58.20;;;;;;5087157;28;20462;-90
2022/04/09 01:25:57;;;;;;;38.27;16.13;;;7.00;58.00;;;;;;5088610;28;21002;-92
2022/04/09 01:28:25;;;;;;;62.43;23.10;;;6.90;58.70;;;;;;5094271;28;20446;-91
2022/04/09 01:30:56;;;;;;;29.77;13.10;;;7.00;58.60;;;;;;5074212;28;20450;-90
2022/04/09 01:33:25;;;;;;;4.93;3.00;;;7.10;58.40;;;;;;5085367;28;20447;-93
2022/04/09 01:35:52;;;;;;;5.90;3.37;;;7.20;58.70;;;;;;5074496;28;20475;-92
2022/04/09 01:38:20;;;;;;;3.80;2.77;;;7.10;58.20;;;;;;5083235;28;20534;-92
2022/04/09 01:40:49;;;;;;;4.23;3.27;;;7.10;58.50;;;;;;5084726;28;20973;-91
2022/04/09 01:43:18;;;;;;;7.77;3.70;;;7.20;58.20;;;;;;5098557;28;20462;-89
2022/04/09 01:45:45;;;;;;;4.03;3.10;;;7.20;57.90;;;;;;5078962;28;20856;-90
2022/04/09 01:48:18;;;;;;;4.47;2.80;;;7.00;58.40;;;;;;5085451;28;20447;-90
2022/04/09 01:50:46;;;;;;;7.20;4.37;;;7.10;58.60;;;;;;5091664;28;20535;-89
2022/04/09 01:53:13;;;;;;;9.63;6.90;;;7.00;58.50;;;;;;5094146;28;20441;-90
2022/04/09 01:55:40;;;;;;;27.80;13.10;;;7.20;58.60;;;;;;5099527;28;20548;-90
2022/04/09 01:58:09;;;;;;;11.97;6.73;;;7.20;58.30;;;;;;5080845;28;20518;-89
2022/04/09 02:00:40;;;;;;;24.23;11.80;;;7.30;58.10;;;;;;5082730;28;20455;-88
2022/04/09 02:03:07;;;;;;;9.47;5.57;;;7.30;57.70;;;;;;5099378;28;20495;-89
2022/04/09 02:05:35;;;;;;;10.30;6.47;;;7.20;58.20;;;;;;5093273;28;20467;-87
2022/04/09 02:08:03;;;;;;;6.97;5.00;;;7.30;58.20;;;;;;5080021;28;20534;-88
2022/04/09 02:10:31;;;;;;;13.50;4.57;;;7.30;57.90;;;;;;5089425;28;20954;-89
2022/04/09 02:13:01;;;;;;;7.83;5.07;;;7.50;57.90;;;;;;5064059;28;20428;-89
2022/04/09 02:15:31;;;;;;;13.57;7.80;;;7.60;57.50;;;;;;5089947;28;20927;-88
2022/04/09 02:17:57;;;;;;;13.50;7.03;;;7.50;57.30;;;;;;5071707;28;20454;-87
2022/04/09 02:20:26;;;;;;;12.30;7.87;;;7.60;57.70;;;;;;5080589;28;20541;-87
2022/04/09 02:22:53;;;;;;;10.20;7.03;;;7.60;57.60;;;;;;5078809;28;20467;-89
2022/04/09 02:25:20;;;;;;;9.50;6.80;;;7.60;57.50;;;;;;5089844;28;21011;-88
2022/04/09 02:27:47;;;;;;;9.97;6.97;;;7.60;57.60;;;;;;5072321;28;20462;-90
2022/04/09 02:30:18;;;;;;;8.40;7.17;;;7.40;57.70;;;;;;5057884;28;20454;-89
2022/04/09 02:32:52;;;;;;;14.20;8.07;;;7.30;58.20;;;;;;5078186;28;20496;-88
2022/04/09 02:35:23;;;;;;;15.53;9.17;;;7.30;58.00;;;;;;5095813;28;20475;-90
2022/04/09 02:37:51;;;;;;;11.93;7.70;;;7.10;58.70;;;;;;5072411;28;20511;-91
2022/04/09 02:40:19;;;;;;;19.13;11.40;;;7.00;59.20;;;;;;5084263;28;20459;-92
2022/04/09 02:42:46;;;;;;;14.10;8.97;;;6.80;59.70;;;;;;5079245;28;21011;-92
2022/04/09 02:45:14;;;;;;;10.57;7.20;;;6.70;59.80;;;;;;5076121;28;20818;-91
2022/04/09 02:47:42;;;;;;;10.23;6.73;;;6.90;60.00;;;;;;5067068;28;21006;-91
2022/04/09 02:50:19;;;;;;;11.40;6.30;;;6.90;59.80;;;;;;5077110;28;20446;-90
2022/04/09 02:52:47;;;;;;;11.30;7.50;;;6.90;59.70;;;;;;5091376;28;20860;-91
2022/04/09 02:55:16;;;;;;;16.53;7.17;;;6.90;59.90;;;;;;5074589;28;20471;-92
2022/04/09 02:57:43;;;;;;;11.03;7.53;;;6.80;59.90;;;;;;5074275;28;20825;-91
2022/04/09 03:00:14;;;;;;;16.20;7.83;;;6.80;60.00;;;;;;5064610;28;20974;-91
2022/04/09 03:02:43;;;;;;;15.07;7.50;;;6.90;60.40;;;;;;5091004;28;20470;-90
2022/04/09 03:05:19;;;;;;;18.37;8.23;;;6.80;60.10;;;;;;5064641;28;20548;-90
2022/04/09 03:07:46;;;;;;;16.17;9.60;;;6.80;60.20;;;;;;5052105;28;20981;-90
2022/04/09 03:10:13;;;;;;;14.67;8.70;;;6.90;60.40;;;;;;5075205;28;20452;-90
2022/04/09 03:12:43;;;;;;;10.47;7.43;;;7.00;59.90;;;;;;5078369;28;20447;-90
2022/04/09 03:15:10;;;;;;;13.53;8.40;;;7.10;59.70;;;;;;5058540;28;21416;-91
2022/04/09 03:17:39;;;;;;;15.87;10.40;;;7.10;59.60;;;;;;5078460;28;20527;-90
2022/04/09 03:20:07;;;;;;;13.83;8.63;;;7.00;59.80;;;;;;5091886;28;20985;-90
2022/04/09 03:22:36;;;;;;;13.43;8.60;;;6.90;60.10;;;;;;5068702;28;20469;-89
2022/04/09 03:25:05;;;;;;;13.70;8.70;;;7.00;60.40;;;;;;5092353;28;20475;-90
2022/04/09 03:27:34;;;;;;;11.97;7.43;;;6.90;59.90;;;;;;5083261;28;20456;-89
2022/04/09 03:30:04;;;;;;;13.60;7.33;;;6.90;60.60;;;;;;5066657;28;20471;-89
2022/04/09 03:32:36;;;;;;;10.90;7.90;;;7.10;60.40;;;;;;5074919;28;20546;-89
2022/04/09 03:35:04;;;;;;;14.17;8.40;;;7.30;59.60;;;;;;5065843;28;20462;-89
2022/04/09 03:37:31;;;;;;;16.03;7.63;;;7.50;58.80;;;;;;5063430;28;20454;-89
2022/04/09 03:40:00;;;;;;;13.90;7.57;;;7.60;58.60;;;;;;5077576;28;20993;-90
2022/04/09 03:42:27;;;;;;;13.50;8.33;;;7.70;58.20;;;;;;5092943;28;20452;-89
2022/04/09 03:44:56;;;;;;;15.10;8.70;;;7.80;57.90;;;;;;5067698;28;20460;-89
2022/04/09 03:47:23;;;;;;;17.53;10.60;;;7.80;57.60;;;;;;5076767;28;20441;-91
2022/04/09 03:49:50;;;;;;;15.10;8.70;;;7.80;57.60;;;;;;5091750;28;20517;-87
2022/04/09 03:52:18;;;;;;;21.27;10.00;;;7.80;57.40;;;;;;5081115;28;20469;-90
2022/04/09 03:54:45;;;;;;;17.07;9.57;;;7.60;57.60;;;;;;5078777;28;20478;-91
2022/04/09 03:57:14;;;;;;;26.17;11.67;;;7.60;58.00;;;;;;5066790;28;20822;-90
2022/04/09 03:59:48;;;;;;;21.83;9.57;;;7.60;57.50;;;;;;5097763;28;20471;-90
2022/04/09 04:02:16;;;;;;;16.93;8.27;;;7.70;57.80;;;;;;5084256;28;20448;-90
2022/04/09 04:04:43;;;;;;;14.67;8.40;;;7.40;58.10;;;;;;5081876;28;20476;-90
2022/04/09 04:07:11;;;;;;;17.37;10.13;;;7.30;58.50;;;;;;5061761;28;20451;-89
2022/04/09 04:09:41;;;;;;;16.47;9.30;;;7.30;58.50;;;;;;5066637;28;20446;-90
2022/04/09 04:12:09;;;;;;;19.40;7.93;;;7.10;59.00;;;;;;5070871;28;21185;-90
2022/04/09 04:14:38;;;;;;;17.33;8.33;;;6.90;59.20;;;;;;5079287;28;20522;-89
2022/04/09 04:17:06;;;;;;;18.67;8.60;;;6.90;59.90;;;;;;5092704;28;20478;-89
2022/04/09 04:19:36;;;;;;;17.10;7.63;;;7.10;59.50;;;;;;5084869;28;20550;-90
2022/04/09 04:22:05;;;;;;;17.47;8.57;;;7.20;59.40;;;;;;5073334;28;20458;-90
2022/04/09 04:24:37;;;;;;;17.17;8.30;;;7.30;58.90;;;;;;5072663;28;20470;-89
2022/04/09 04:27:06;;;;;;;16.57;8.93;;;7.30;58.70;;;;;;5082656;28;20948;-91
2022/04/09 04:29:34;;;;;;;18.83;9.70;;;7.50;58.50;;;;;;5066560;28;20451;-91
2022/04/09 04:32:03;;;;;;;21.20;9.53;;;7.60;58.30;;;;;;5104862;28;20447;-93
2022/04/09 04:34:30;;;;;;;17.57;9.90;;;7.70;58.00;;;;;;5078272;28;20910;-90
2022/04/09 04:36:57;;;;;;;20.30;9.90;;;7.70;57.60;;;;;;5082403;28;20496;-90
2022/04/09 04:39:26;;;;;;;17.93;10.20;;;7.50;58.10;;;;;;5079038;28;20444;-91
2022/04/09 04:41:54;;;;;;;20.17;9.57;;;7.60;58.00;;;;;;5081090;28;20440;-91
2022/04/09 04:44:21;;;;;;;15.50;9.20;;;7.50;58.00;;;;;;5072178;28;21045;-91
2022/04/09 04:46:52;;;;;;;14.53;7.33;;;7.50;58.50;;;;;;5061262;28;20452;-91
2022/04/09 04:49:24;;;;;;;21.20;12.80;;;7.60;58.20;;;;;;5058815;28;20496;-92
2022/04/09 04:51:57;;;;;;;21.17;11.03;;;7.50;58.40;;;;;;5060298;28;21004;-92
2022/04/09 04:54:24;;;;;;;23.50;9.90;;;7.50;58.40;;;;;;5068109;28;20470;-91
2022/04/09 04:56:51;;;;;;;28.33;13.40;;;7.50;58.20;;;;;;5057671;28;20489;-91
2022/04/09 04:59:19;;;;;;;23.70;12.40;;;7.40;58.80;;;;;;5083078;28;20531;-90
2022/04/09 05:01:46;;;;;;;38.13;16.93;;;7.40;59.00;;;;;;5072642;28;20447;-90
2022/04/09 05:04:15;;;;;;;36.47;18.47;;;7.40;59.20;;;;;;5078811;28;20575;-90
2022/04/09 05:06:51;;;;;;;36.37;16.30;;;7.40;59.20;;;;;;5074546;28;20455;-88
2022/04/09 05:09:21;;;;;;;16.70;8.90;;;7.40;58.40;;;;;;5070243;28;20857;-89
2022/04/09 05:11:56;;;;;;;25.07;10.93;;;7.30;59.10;;;;;;5079406;28;20977;-89
2022/04/09 05:14:33;;;;;;;33.87;15.13;;;7.30;59.20;;;;;;5061671;28;20467;-89
2022/04/09 05:17:04;;;;;;;24.60;11.93;;;7.30;59.00;;;;;;5072704;28;20480;-89
2022/04/09 05:19:35;;;;;;;43.60;23.20;;;7.10;59.70;;;;;;5061189;28;20479;-89
2022/04/09 05:22:09;;;;;;;48.70;22.73;;;7.20;59.60;;;;;;5058090;28;20456;-88
2022/04/09 05:24:45;;;;;;;32.80;17.13;;;7.20;59.10;;;;;;5084405;28;20524;-87
2022/04/09 05:27:13;;;;;;;29.40;11.40;;;7.20;59.50;;;;;;5079358;28;20459;-88
2022/04/09 05:29:41;;;;;;;53.63;25.63;;;7.00;59.90;;;;;;5079169;28;20454;-87
2022/04/09 05:32:09;;;;;;;22.83;13.03;;;7.20;60.00;;;;;;5080008;28;20466;-89
2022/04/09 05:34:38;;;;;;;23.77;12.67;;;7.10;59.90;;;;;;5091765;28;20467;-87
2022/04/09 05:37:05;;;;;;;20.27;10.80;;;6.90;60.50;;;;;;5062052;28;20537;-88
2022/04/09 05:39:34;;;;;;;27.97;13.90;;;6.90;60.70;;;;;;5093624;28;21132;-88
2022/04/09 05:42:02;;;;;;;32.00;19.30;;;7.00;60.30;;;;;;5081120;28;20855;-88
2022/04/09 05:44:29;;;;;;;89.57;51.70;;;7.10;59.80;;;;;;5083025;28;20479;-88
2022/04/09 05:46:56;;;;;;;20.40;13.27;;;7.10;59.70;;;;;;5074401;28;20451;-88
2022/04/09 05:49:23;;;;;;;21.07;12.03;;;7.00;59.70;;;;;;5097136;28;20462;-88
2022/04/09 05:51:50;;;;;;;17.27;12.53;;;7.10;60.10;;;;;;5083194;28;20459;-89
2022/04/09 05:54:17;;;;;;;17.83;7.97;;;7.20;60.80;;;;;;5098136;28;20556;-89
2022/04/09 05:56:49;;;;;;;23.17;9.83;;;7.20;59.40;;;;;;5073239;28;20445;-88
2022/04/09 05:59:17;;;;;;;11.17;7.93;;;7.30;59.60;;;;;;5065319;28;20439;-88
2022/04/09 06:01:44;;;;;;;9.07;7.17;;;7.20;59.50;;;;;;5064668;28;20528;-88
2022/04/09 06:04:14;;;;;;;35.03;8.90;;;7.20;59.40;;;;;;5089690;28;20483;-87
2022/04/09 06:06:41;;;;;;;17.40;10.43;;;7.30;59.50;;;;;;5073347;28;21042;-87
2022/04/09 06:09:11;;;;;;;15.33;9.97;;;7.30;59.40;;;;;;5076442;28;20504;-87
2022/04/09 06:11:53;;;;;;;11.60;7.00;;;7.40;59.70;;;;;;5076618;28;20435;-87
2022/04/09 06:14:24;;;;;;;13.30;8.37;;;7.20;60.10;;;;;;5079938;28;20467;-88
2022/04/09 06:16:51;;;;;;;18.80;9.53;;;7.20;59.70;;;;;;5069521;28;20450;-86
2022/04/09 06:19:18;;;;;;;12.90;8.50;;;7.10;59.90;;;;;;5087870;28;20459;-87
2022/04/09 06:21:46;;;;;;;10.47;7.70;;;7.40;59.80;;;;;;5062250;28;21141;-88
2022/04/09 06:24:17;;;;;;;10.67;7.47;;;7.50;59.40;;;;;;5063105;28;21113;-88
2022/04/09 06:26:45;;;;;;;25.63;9.50;;;7.70;59.40;;;;;;5058810;28;20455;-89
2022/04/09 06:29:14;;;;;;;11.83;7.20;;;7.90;59.20;;;;;;5054856;28;20466;-89
2022/04/09 06:31:47;;;;;;;12.13;7.83;;;8.00;58.90;;;;;;5068649;28;20454;-88
2022/04/09 06:34:14;;;;;;;11.63;6.80;;;8.00;58.50;;;;;;5080270;28;20470;-87
2022/04/09 06:36:41;;;;;;;12.47;8.33;;;8.10;59.00;;;;;;5090884;28;20447;-88
2022/04/09 06:39:10;;;;;;;12.13;8.17;;;8.20;58.80;;;;;;5095920;28;20992;-89
2022/04/09 06:41:38;;;;;;;9.13;6.83;;;8.30;58.40;;;;;;5073818;28;20452;-88
2022/04/09 06:44:11;;;;;;;24.43;7.00;;;8.40;58.20;;;;;;5087492;27;20800;-89
2022/04/09 06:46:56;;;;;;;14.30;6.40;;;8.40;57.90;;;;;;5063230;28;20455;-89
2022/04/09 06:49:28;;;;;;;13.87;10.80;;;8.20;57.90;;;;;;5061606;28;20450;-89
2022/04/09 06:52:07;;;;;;;7.50;5.20;;;8.30;58.20;;;;;;5093401;28;20471;-89
2022/04/09 06:55:04;;;;;;;6.60;5.20;;;8.10;57.90;;;;;;5054568;28;20570;-88
2022/04/09 06:57:35;;;;;;;8.93;6.00;;;8.40;58.20;;;;;;5070107;28;20439;-89
2022/04/09 07:00:04;;;;;;;9.50;6.43;;;8.60;58.00;;;;;;5085283;28;21164;-89
2022/04/09 07:02:38;;;;;;;18.37;9.27;;;8.60;57.50;;;;;;5070109;28;20974;-87
2022/04/09 07:05:06;;;;;;;12.27;5.90;;;8.40;57.40;;;;;;5082119;28;20486;-88
2022/04/09 07:07:33;;;;;;;9.20;6.00;;;8.20;57.40;;;;;;5085791;28;20488;-90
2022/04/09 07:10:05;;;;;;;15.13;4.80;;;8.30;57.80;;;;;;5076430;28;20451;-89
2022/04/09 07:12:32;;;;;;;10.40;4.43;;;8.00;58.30;;;;;;5084959;28;20513;-90
2022/04/09 07:14:59;;;;;;;16.47;5.47;;;8.10;58.20;;;;;;5075997;28;20470;-89
2022/04/09 07:17:26;;;;;;;8.13;5.10;;;8.00;58.80;;;;;;5071629;28;20443;-90
2022/04/09 07:19:58;;;;;;;8.80;5.50;;;7.80;58.00;;;;;;5062402;28;20504;-88
2022/04/09 07:22:25;;;;;;;5.13;3.60;;;7.70;58.60;;;;;;5084190;28;20872;-90
2022/04/09 07:24:52;;;;;;;11.33;3.43;;;7.80;58.80;;;;;;5084835;28;20471;-88
2022/04/09 07:27:20;;;;;;;9.33;3.63;;;7.70;58.30;;;;;;5071296;28;20444;-89
2022/04/09 07:29:47;;;;;;;13.43;6.23;;;7.70;58.80;;;;;;5076392;28;20964;-88
2022/04/09 07:32:14;;;;;;;10.20;5.83;;;7.60;59.00;;;;;;5052553;28;20674;-89
2022/04/09 07:34:41;;;;;;;6.13;4.13;;;7.60;59.10;;;;;;5066811;28;20467;-88
2022/04/09 07:37:09;;;;;;;6.40;3.07;;;7.60;58.60;;;;;;5069360;28;20884;-89
2022/04/09 07:39:37;;;;;;;6.50;4.03;;;7.60;58.90;;;;;;5069194;28;20463;-87
2022/04/09 07:42:05;;;;;;;6.30;4.20;;;7.80;59.10;;;;;;5056265;28;20454;-87
2022/04/09 07:44:31;;;;;;;13.67;4.87;;;8.00;57.90;;;;;;5068964;28;20489;-86
2022/04/09 07:46:58;;;;;;;10.40;4.20;;;8.00;58.00;;;;;;5087699;28;21247;-86
2022/04/09 07:49:25;;;;;;;7.27;4.10;;;8.20;57.90;;;;;;5090533;28;20530;-87
2022/04/09 07:51:54;;;;;;;10.57;4.73;;;8.20;57.60;;;;;;5097042;28;20454;-88
2022/04/09 07:54:24;;;;;;;5.20;3.67;;;8.20;57.40;;;;;;5098399;28;20475;-87
2022/04/09 07:56:51;;;;;;;6.83;4.30;;;8.10;57.10;;;;;;5069175;28;20453;-85
2022/04/09 07:59:18;;;;;;;5.03;3.73;;;8.20;57.70;;;;;;5089907;28;20460;-87
2022/04/09 08:01:45;;;;;;;4.90;2.93;;;8.20;57.70;;;;;;5089379;28;20497;-89
2022/04/09 08:04:11;;;;;;;15.93;5.97;;;8.00;57.40;;;;;;5080177;28;20474;-88
2022/04/09 08:06:38;;;;;;;11.30;3.87;;;8.00;57.60;;;;;;5094623;28;20440;-89
2022/04/09 08:09:05;;;;;;;4.23;3.60;;;8.00;57.90;;;;;;5092923;28;20454;-88
2022/04/09 08:11:34;;;;;;;7.00;4.70;;;8.10;57.90;;;;;;5082630;28;20462;-89
2022/04/09 08:14:01;;;;;;;8.90;4.80;;;8.30;57.50;;;;;;5073249;28;20443;-89
2022/04/09 08:16:29;;;;;;;11.87;4.20;;;8.20;57.30;;;;;;5090779;28;20792;-88
2022/04/09 08:18:56;;;;;;;6.43;3.97;;;8.10;57.50;;;;;;5076871;28;20452;-88
2022/04/09 08:21:23;;;;;;;7.43;4.30;;;8.00;58.20;;;;;;5095723;28;20443;-90
2022/04/09 08:23:50;;;;;;;7.73;4.47;;;7.80;58.60;;;;;;5095325;28;20447;-89
2022/04/09 08:26:17;;;;;;;5.43;3.70;;;7.80;58.00;;;;;;5093053;28;20468;-90
2022/04/09 08:28:45;;;;;;;7.60;5.27;;;7.80;59.00;;;;;;5080975;28;20505;-90
2022/04/09 08:31:12;;;;;;;6.90;3.50;;;7.80;57.80;;;;;;5099942;28;20479;-91
2022/04/09 08:33:40;;;;;;;7.87;3.50;;;8.00;57.90;;;;;;5068265;28;20540;-89
2022/04/09 08:36:07;;;;;;;4.47;3.90;;;7.90;57.70;;;;;;5084005;28;20455;-91
2022/04/09 08:38:34;;;;;;;4.93;4.03;;;7.70;58.50;;;;;;5094943;28;20431;-91
2022/04/09 08:41:03;;;;;;;7.60;5.00;;;7.70;58.60;;;;;;5100364;28;20439;-91
2022/04/09 08:43:30;;;;;;;6.30;4.37;;;7.70;58.40;;;;;;5074281;28;20518;-91
2022/04/09 08:46:02;;;;;;;9.20;3.67;;;7.60;58.40;;;;;;5079461;28;20463;-90
2022/04/09 08:48:29;;;;;;;12.70;4.17;;;7.80;58.00;;;;;;5086047;28;20444;-90
2022/04/09 08:50:57;;;;;;;8.37;3.57;;;7.90;57.80;;;;;;5088110;28;20450;-91
2022/04/09 08:53:24;;;;;;;9.90;4.50;;;7.80;58.20;;;;;;5097310;28;20918;-92
2022/04/09 08:55:52;;;;;;;4.90;3.53;;;8.10;57.70;;;;;;5096109;28;20463;-87
2022/04/09 08:58:19;;;;;;;7.03;3.33;;;8.20;57.70;;;;;;5084394;28;20439;-91
2022/04/09 09:00:47;;;;;;;5.73;3.93;;;8.30;57.30;;;;;;5070786;28;20522;-90
2022/04/09 09:03:16;;;;;;;13.50;3.80;;;8.50;57.00;;;;;;5080645;28;20986;-91
2022/04/09 09:05:45;;;;;;;5.23;3.13;;;8.60;57.60;;;;;;5083168;28;20485;-89
2022/04/09 09:08:12;;;;;;;5.70;2.97;;;8.70;56.60;;;;;;5060771;28;20442;-90
2022/04/09 09:10:41;;;;;;;6.87;2.70;;;8.70;55.70;;;;;;5092149;28;20458;-89
2022/04/09 09:13:10;;;;;;;6.97;3.13;;;8.90;56.40;;;;;;5090998;28;20448;-88
2022/04/09 09:15:48;;;;;;;11.93;3.37;;;8.90;55.00;;;;;;5094320;28;20466;-90
2022/04/09 09:18:21;;;;;;;5.07;2.97;;;9.10;56.00;;;;;;5096995;28;20454;-90
2022/04/09 09:20:49;;;;;;;6.17;3.27;;;9.30;54.60;;;;;;5095008;28;20440;-90
2022/04/09 09:23:20;;;;;;;7.07;3.17;;;9.70;55.10;;;;;;5094903;28;20447;-90
2022/04/09 09:25:49;;;;;;;6.90;3.70;;;9.90;54.20;;;;;;5089014;28;20494;-90
2022/04/09 09:28:23;;;;;;;9.33;3.70;;;9.90;52.90;;;;;;5113679;27;20448;-89
2022/04/09 09:30:50;;;;;;;5.70;3.27;;;10.00;52.50;;;;;;5096312;28;20493;-88
2022/04/09 09:33:17;;;;;;;6.70;2.90;;;9.90;52.40;;;;;;5085121;28;20926;-90
2022/04/09 09:35:51;;;;;;;5.17;3.70;;;10.00;51.70;;;;;;5079138;28;20465;-90
2022/04/09 09:38:19;;;;;;;5.90;3.23;;;10.20;52.30;;;;;;5070627;28;20443;-91
2022/04/09 09:40:46;;;;;;;12.13;4.90;;;10.30;52.40;;;;;;5062189;28;20456;-90
2022/04/09 09:43:14;;;;;;;4.83;2.97;;;10.50;51.60;;;;;;5081323;28;20991;-91
2022/04/09 09:45:41;;;;;;;13.17;5.87;;;10.50;50.80;;;;;;5090955;28;20467;-90
2022/04/09 09:48:20;;;;;;;10.53;4.97;;;10.40;50.60;;;;;;5081813;28;20846;-91
2022/04/09 09:50:47;;;;;;;10.07;6.27;;;10.20;51.30;;;;;;5090327;28;21022;-90
2022/04/09 09:53:15;;;;;;;14.53;5.47;;;10.20;51.70;;;;;;5068949;28;20463;-91
2022/04/09 09:55:43;;;;;;;11.03;3.77;;;10.30;51.60;;;;;;5078610;28;20947;-91
2022/04/09 09:58:13;;;;;;;6.40;3.97;;;10.70;51.70;;;;;;5078974;28;20535;-91
2022/04/09 10:00:40;;;;;;;8.23;4.60;;;10.80;51.30;;;;;;5094540;28;20988;-91
2022/04/09 10:03:09;;;;;;;8.70;5.13;;;10.90;50.40;;;;;;5100545;28;20458;-90
2022/04/09 10:05:39;;;;;;;6.77;4.20;;;10.90;50.70;;;;;;5070563;28;20501;-91
2022/04/09 10:08:06;;;;;;;9.70;4.00;;;10.70;50.50;;;;;;5095086;28;20937;-90
2022/04/09 10:10:38;;;;;;;8.10;3.93;;;10.50;50.30;;;;;;5085985;28;20456;-91
2022/04/09 10:13:05;;;;;;;15.83;10.83;;;10.50;50.90;;;;;;5095673;28;20938;-89
2022/04/09 10:15:33;;;;;;;7.70;4.93;;;10.50;51.10;;;;;;5079638;28;20460;-89
2022/04/09 10:18:02;;;;;;;10.00;4.40;;;10.70;50.60;;;;;;5061412;28;20455;-89
2022/04/09 10:20:30;;;;;;;10.63;4.70;;;11.10;50.40;;;;;;5088738;28;20505;-89
2022/04/09 10:22:59;;;;;;;6.50;4.87;;;11.20;48.90;;;;;;5085557;28;20977;-89
2022/04/09 10:25:28;;;;;;;8.07;5.13;;;11.30;49.00;;;;;;5069066;28;20563;-89
2022/04/09 10:28:02;;;;;;;3.80;3.33;;;11.30;49.60;;;;;;5094265;28;20543;-91
2022/04/09 10:30:38;;;;;;;6.60;4.00;;;11.40;48.60;;;;;;5094112;28;20444;-89
2022/04/09 10:33:21;;;;;;;7.13;2.97;;;11.50;49.30;;;;;;5094826;28;20448;-90
2022/04/09 10:35:49;;;;;;;6.43;3.30;;;11.20;48.90;;;;;;5084205;28;20495;-89
2022/04/09 10:38:20;;;;;;;17.23;8.87;;;11.10;48.50;;;;;;5083836;28;20916;-88
2022/04/09 10:41:27;;;;;;;11.23;4.40;;;11.40;50.10;;;;;;5090211;28;20451;-89
2022/04/09 10:43:58;;;;;;;5.83;3.23;;;11.50;48.80;;;;;;5094920;28;20440;-89
2022/04/09 10:46:37;;;;;;;10.03;5.30;;;11.40;48.40;;;;;;5065288;28;20456;-90
2022/04/09 10:49:22;;;;;;;11.33;6.93;;;11.80;49.90;;;;;;5091608;28;21168;-90
2022/04/09 10:52:11;;;;;;;11.93;6.20;;;11.90;47.30;;;;;;5092211;28;20537;-90
2022/04/09 10:54:41;;;;;;;9.80;4.13;;;11.80;47.60;;;;;;5064860;28;20475;-89
2022/04/09 10:57:10;;;;;;;11.00;5.17;;;11.90;47.70;;;;;;5093345;28;20447;-88
2022/04/09 10:59:38;;;;;;;9.80;5.00;;;11.80;49.00;;;;;;5072037;28;21024;-89
2022/04/09 11:02:06;;;;;;;16.57;9.03;;;11.80;47.90;;;;;;5091997;28;20496;-90
2022/04/09 11:04:41;;;;;;;26.53;11.20;;;11.60;48.70;;;;;;5110761;27;20482;-90
2022/04/09 11:07:15;;;;;;;8.00;4.97;;;11.50;48.30;;;;;;5077136;28;20985;-88
2022/04/09 11:09:51;;;;;;;4.83;3.67;;;11.70;48.00;;;;;;5086615;28;20460;-88
2022/04/09 11:12:20;;;;;;;19.03;8.17;;;12.10;46.40;;;;;;5067988;28;20447;-89
2022/04/09 11:14:50;;;;;;;12.33;5.70;;;12.30;46.90;;;;;;5088596;28;20489;-89
2022/04/09 11:17:24;;;;;;;21.53;8.87;;;12.20;46.40;;;;;;5077512;28;20457;-89
2022/04/09 11:19:52;;;;;;;6.50;4.40;;;12.30;47.10;;;;;;5082688;28;21223;-88
2022/04/09 11:22:19;;;;;;;2.57;2.20;;;12.70;46.10;;;;;;5085454;28;20458;-88
2022/04/09 11:24:47;;;;;;;4.33;3.93;;;12.40;45.00;;;;;;5059853;28;20466;-88
2022/04/09 11:27:14;;;;;;;3.30;3.00;;;11.90;45.80;;;;;;5094357;28;20478;-87
2022/04/09 11:29:42;;;;;;;7.27;3.83;;;11.40;45.50;;;;;;5093064;28;20460;-86
2022/04/09 11:32:19;;;;;;;4.17;3.10;;;11.40;46.90;;;;;;5093222;28;22423;-91
2022/04/09 11:34:47;;;;;;;15.00;4.20;;;11.50;47.10;;;;;;5096675;28;20478;-88
2022/04/09 11:37:15;;;;;;;8.60;4.40;;;11.70;47.60;;;;;;5077797;28;20483;-88
2022/04/09 11:39:42;;;;;;;8.90;2.77;;;11.70;47.30;;;;;;5093104;28;20439;-88
2022/04/09 11:42:10;;;;;;;3.80;3.27;;;11.40;46.50;;;;;;5076424;28;20466;-86
2022/04/09 11:44:38;;;;;;;4.10;2.60;;;11.50;46.10;;;;;;5092997;28;20475;-92
2022/04/09 11:47:10;;;;;;;13.87;4.47;;;11.80;46.90;;;;;;5068748;28;20447;-88
2022/04/09 11:49:39;;;;;;;8.03;3.33;;;12.10;47.50;;;;;;5076701;28;20534;-88
2022/04/09 11:52:07;;;;;;;9.00;3.93;;;12.10;45.50;;;;;;5092059;28;20937;-87
2022/04/09 11:54:35;;;;;;;4.63;2.10;;;11.70;45.20;;;;;;5079931;28;20467;-87
2022/04/09 11:57:04;;;;;;;6.70;4.43;;;11.60;44.90;;;;;;5083569;28;20962;-86
2022/04/09 11:59:31;;;;;;;3.60;2.70;;;11.60;47.60;;;;;;5065385;28;20482;-87
2022/04/09 12:01:58;;;;;;;4.50;2.70;;;11.50;45.70;;;;;;5091982;28;20447;-87
2022/04/09 12:04:34;;;;;;;4.20;3.80;;;11.50;45.60;;;;;;5077133;28;20486;-90
2022/04/09 12:07:06;;;;;;;6.70;3.83;;;11.70;47.10;;;;;;5075201;28;20495;-87
2022/04/09 12:09:33;;;;;;;7.37;3.90;;;11.80;46.30;;;;;;5059086;28;20439;-89
2022/04/09 12:12:03;;;;;;;6.40;2.43;;;12.20;46.00;;;;;;5086839;28;20444;-87
2022/04/09 12:14:30;;;;;;;5.40;3.60;;;12.50;45.30;;;;;;5089467;28;20500;-88
2022/04/09 12:16:57;;;;;;;5.90;3.33;;;12.50;44.20;;;;;;5072940;28;20450;-88
2022/04/09 12:19:32;;;;;;;4.70;3.60;;;12.30;45.60;;;;;;5074631;28;20466;-91
2022/04/09 12:22:19;;;;;;;7.27;3.17;;;12.40;44.70;;;;;;5091170;28;22293;-88
2022/04/09 12:24:52;;;;;;;5.20;3.53;;;12.30;44.40;;;;;;5095224;28;20471;-87
2022/04/09 12:27:20;;;;;;;10.43;3.37;;;12.20;46.30;;;;;;5087756;28;20528;-87
2022/04/09 12:29:48;;;;;;;3.50;2.57;;;12.50;47.40;;;;;;5092027;28;20514;-90
2022/04/09 12:32:17;;;;;;;9.80;3.40;;;12.70;45.80;;;;;;5078163;28;20452;-88
2022/04/09 12:34:58;;;;;;;4.50;3.00;;;12.70;44.10;;;;;;5093096;28;20467;-87
2022/04/09 12:37:27;;;;;;;15.73;4.07;;;12.40;44.10;;;;;;5081869;28;20946;-88
2022/04/09 12:40:12;;;;;;;4.63;2.90;;;12.20;44.60;;;;;;5088635;28;20452;-87
2022/04/09 12:42:39;;;;;;;46.93;29.60;;;11.80;46.80;;;;;;5062085;28;21047;-87
2022/04/09 12:45:15;;;;;;;8.33;3.43;;;11.30;49.80;;;;;;5072604;28;20462;-86
2022/04/09 12:47:42;;;;;;;3.53;2.10;;;10.80;50.20;;;;;;5074335;28;20590;-87
2022/04/09 12:50:24;;;;;;;4.27;2.47;;;10.40;51.90;;;;;;5088650;28;20526;-85
2022/04/09 12:52:53;;;;;;;3.97;2.70;;;9.90;55.30;;;;;;5089672;28;20448;-86
2022/04/09 12:55:22;;;;;;;19.93;11.80;;;9.40;57.10;;;;;;5099350;28;20478;-84
2022/04/09 12:57:49;;;;;;;1.50;1.40;;;9.20;56.10;;;;;;5074418;28;20454;-85
2022/04/09 13:00:17;;;;;;;2.90;2.03;;;9.00;57.00;;;;;;5088178;28;20466;-85
2022/04/09 13:02:45;;;;;;;12.23;6.47;;;8.80;58.10;;;;;;5090386;28;20552;-86